Kokomo — WDB6285 — position and weather

sailwx.info

Track history (hours):
 
Tides and Currents Weather Stations Pressure Air Temp Water Temp Dewpoint Dewpoint Depression Visibility Wind Speed Wind Dir Waves Ship Positions

Kokomo

Owner: benson mr, marvin l, del mar, CA. More information available from US FCC via Universal Licensing System.

Last reported at 2018-Feb-23 07:07 UTC. Time now 2018-Feb-23 12:30 UTC.
Position N 29°44' W 095°03'.

Length 28 m; draft 3.4 m.

Type: . MMSI: 366921420.

Date/timePositionNaut miles runAvg speedWind from/ knotsBaromVisibWave heightAir tempDewpointWater temp
2018-Feb-23 07:07N 29°44' W 095°03'0 0.0
2018-Feb-23 06:58N 29°44' W 095°03'1 2.0
2018-Feb-23 06:30N 29°45' W 095°04'0 0.2
2018-Feb-23 04:42N 29°44' W 095°04'2 3.3
2018-Feb-23 04:05N 29°44' W 095°01'0 0.0
2018-Feb-23 04:00N 29°44' W 095°01'0 0.0
2018-Feb-23 03:30N 29°44' W 095°01'0 0.0
2018-Feb-23 00:54N 29°44' W 095°01'0 0.0
2018-Feb-21 11:02N 29°44' W 095°01'0 0.0
2018-Feb-21 11:00N 29°44' W 095°01'0 0.1
2018-Feb-21 09:44N 29°44' W 095°02'1 2.4
2018-Feb-21 09:29N 29°44' W 095°02'3 0.2
2018-Feb-20 14:06N 29°47' W 095°05'0 0.0
2018-Feb-20 13:46N 29°47' W 095°05'4 0.7
2018-Feb-20 08:15N 29°44' W 095°01'0 0.0
2018-Feb-19 18:28N 29°44' W 095°01'0 0.0
2018-Feb-19 15:00N 29°44' W 095°01'0 0.0
2018-Feb-19 09:30N 29°44' W 095°01'0 0.0
2018-Feb-19 08:59N 29°44' W 095°01'0 0.0
2018-Feb-19 08:30N 29°44' W 095°01'0 0.1
2018-Feb-19 08:00N 29°44' W 095°01'0 0.0
2018-Feb-19 07:30N 29°44' W 095°01'0 0.0
2018-Feb-19 07:00N 29°44' W 095°01'0 0.0
2018-Feb-19 06:29N 29°44' W 095°01'0 0.0
2018-Feb-19 06:00N 29°44' W 095°01'0 0.0
2018-Feb-19 05:30N 29°44' W 095°01'0 0.1
2018-Feb-18 21:26N 29°44' W 095°02'2 5.7
2018-Feb-18 21:00N 29°45' W 095°04'1 0.2
2018-Feb-18 17:07N 29°46' W 095°05'1 5.6
2018-Feb-18 16:59N 29°45' W 095°04'2 2.7
2018-Feb-18 16:17N 29°47' W 095°04'0 0.0
2018-Feb-18 15:55N 29°47' W 095°04'0 0.1
2018-Feb-18 14:59N 29°47' W 095°05'0 0.0
2018-Feb-18 14:21N 29°47' W 095°05'0 0.2
2018-Feb-18 11:29N 29°47' W 095°04'2 1.0
2018-Feb-18 09:25N 29°46' W 095°06'2 1.0
2018-Feb-18 07:15N 29°47' W 095°05'1 0.1
2018-Feb-18 02:43N 29°47' W 095°05'2 4.9
2018-Feb-18 02:14N 29°45' W 095°04'1 1.2
2018-Feb-18 01:29N 29°44' W 095°03'3 1.6
2018-Feb-17 23:32N 29°47' W 095°05'1 4.5
2018-Feb-17 23:19N 29°46' W 095°05'2 7.6
2018-Feb-17 23:00N 29°44' W 095°03'0 0.2
2018-Feb-17 22:29N 29°44' W 095°03'0 0.0
2018-Feb-17 22:00N 29°44' W 095°03'0 0.0
2018-Feb-17 21:30N 29°44' W 095°03'0 0.0
2018-Feb-17 20:58N 29°44' W 095°03'0 0.0
2018-Feb-17 20:30N 29°44' W 095°03'0 0.0
2018-Feb-17 20:00N 29°44' W 095°03'0 0.0
2018-Feb-17 19:30N 29°44' W 095°03'0 0.0
2018-Feb-17 19:00N 29°44' W 095°03'0 0.0
2018-Feb-17 18:29N 29°44' W 095°03'0 0.0
2018-Feb-17 17:57N 29°44' W 095°03'0 0.0
2018-Feb-17 17:27N 29°44' W 095°03'0 0.0
2018-Feb-17 16:55N 29°44' W 095°03'0 0.0
2018-Feb-17 16:29N 29°44' W 095°03'0 0.0
2018-Feb-17 15:58N 29°44' W 095°03'0 0.0
2018-Feb-17 15:29N 29°44' W 095°03'0 0.0
2018-Feb-17 14:59N 29°44' W 095°03'0 0.0
2018-Feb-17 14:30N 29°44' W 095°03'0 0.0
2018-Feb-17 13:56N 29°44' W 095°03'0 0.0
2018-Feb-17 13:24N 29°44' W 095°03'0 0.2
2018-Feb-17 12:54N 29°44' W 095°03'0 0.0
2018-Feb-17 12:30N 29°44' W 095°03'0 0.0
2018-Feb-17 12:00N 29°44' W 095°03'0 0.0
2018-Feb-17 11:30N 29°44' W 095°03'0 0.0
2018-Feb-17 10:57N 29°44' W 095°03'0 0.0
2018-Feb-17 10:30N 29°44' W 095°03'0 0.0
2018-Feb-17 09:58N 29°44' W 095°03'0 0.0
2018-Feb-17 09:27N 29°44' W 095°03'0 0.0
2018-Feb-17 08:57N 29°44' W 095°03'0 0.0
2018-Feb-17 08:30N 29°44' W 095°03'0 0.0
2018-Feb-17 08:00N 29°44' W 095°03'0 0.0
2018-Feb-17 07:30N 29°44' W 095°03'0 0.0
2018-Feb-17 06:56N 29°44' W 095°03'0 0.0
2018-Feb-17 06:29N 29°44' W 095°03'0 0.0
2018-Feb-17 06:00N 29°44' W 095°03'0 0.0
2018-Feb-17 05:30N 29°44' W 095°03'0 0.0
2018-Feb-17 04:54N 29°44' W 095°03'0 0.0
2018-Feb-17 04:30N 29°44' W 095°03'0 0.0
2018-Feb-17 04:00N 29°44' W 095°03'0 0.0
2018-Feb-17 03:29N 29°44' W 095°03'0 0.0
2018-Feb-17 03:00N 29°44' W 095°03'0 0.0
2018-Feb-17 02:29N 29°44' W 095°03'0 0.0
2018-Feb-17 01:59N 29°44' W 095°03'0 0.0
2018-Feb-17 01:29N 29°44' W 095°03'0 0.0
2018-Feb-17 00:58N 29°44' W 095°03'0 0.0
2018-Feb-17 00:28N 29°44' W 095°03'0 0.0
2018-Feb-16 23:59N 29°44' W 095°03'0 0.0
2018-Feb-16 23:30N 29°44' W 095°03'0 0.0
2018-Feb-16 23:00N 29°44' W 095°03'0 0.0
2018-Feb-16 21:46N 29°44' W 095°03'0 0.0
2018-Feb-16 16:33N 29°44' W 095°03'0 0.0
2018-Feb-16 16:30N 29°44' W 095°03'0 0.3
2018-Feb-16 16:00N 29°44' W 095°03'2 3.2
2018-Feb-16 15:29N 29°45' W 095°04'2 3.4
2018-Feb-16 15:00N 29°47' W 095°04'0 0.9
2018-Feb-16 14:30N 29°47' W 095°05'0 0.0
2018-Feb-16 13:59N 29°47' W 095°05'0 0.0
2018-Feb-16 11:08N 29°47' W 095°05'0 0.0
2018-Feb-16 09:17N 29°47' W 095°05'0 0.0
2018-Feb-16 08:54N 29°47' W 095°05'0 0.0
2018-Feb-16 08:18N 29°47' W 095°05'0 0.0
2018-Feb-16 07:49N 29°47' W 095°05'0 0.0
2018-Feb-16 07:24N 29°47' W 095°05'0 0.0
2018-Feb-16 06:58N 29°47' W 095°05'0 0.0
2018-Feb-16 06:30N 29°47' W 095°05'0 0.0
2018-Feb-16 05:58N 29°47' W 095°05'0 0.0
2018-Feb-16 05:25N 29°47' W 095°05'0 0.0
2018-Feb-16 04:55N 29°47' W 095°05'0 0.2
2018-Feb-16 04:30N 29°47' W 095°05'0 0.0
2018-Feb-16 03:58N 29°47' W 095°05'0 0.0
2018-Feb-16 03:30N 29°47' W 095°05'0 0.0
2018-Feb-16 02:59N 29°47' W 095°05'0 0.0
2018-Feb-16 02:28N 29°47' W 095°05'1 1.7
2018-Feb-16 01:38N 29°46' W 095°05'1 5.9
2018-Feb-16 01:28N 29°45' W 095°06'2 0.4
2018-Feb-15 19:36N 29°47' W 095°05'0 0.0
2018-Feb-15 08:08N 29°47' W 095°05'0 0.0
2018-Feb-15 08:00N 29°47' W 095°05'0 0.0
2018-Feb-15 07:15N 29°47' W 095°05'0 0.0
2018-Feb-15 06:51N 29°47' W 095°05'0 0.0
2018-Feb-15 06:27N 29°47' W 095°05'0 0.0
2018-Feb-15 05:43N 29°47' W 095°05'0 0.0
2018-Feb-15 05:22N 29°47' W 095°05'0 0.0
2018-Feb-15 04:50N 29°47' W 095°05'0 0.0
2018-Feb-15 04:15N 29°47' W 095°05'0 0.0
2018-Feb-14 22:21N 29°47' W 095°05'0 0.0
2018-Feb-14 21:58N 29°47' W 095°05'0 0.0
2018-Feb-14 20:08N 29°47' W 095°05'1 0.7
2018-Feb-14 18:34N 29°46' W 095°05'2 2.4
2018-Feb-14 17:52N 29°45' W 095°06'0 0.0
2018-Feb-14 17:12N 29°45' W 095°06'0 0.0
2018-Feb-14 16:43N 29°45' W 095°06'0 0.0
2018-Feb-14 14:48N 29°45' W 095°06'0 0.0
2018-Feb-14 14:26N 29°45' W 095°06'0 0.0
2018-Feb-14 13:58N 29°45' W 095°06'0 0.0
2018-Feb-14 13:28N 29°45' W 095°06'  
Track history (hours):
 
Tides and Currents Weather Stations Pressure Air Temp Water Temp Dewpoint Dewpoint Depression Visibility Wind Speed Wind Dir Waves Ship Positions

Kokomo

Owner: benson mr, marvin l, del mar, CA. More information available from US FCC via Universal Licensing System.

Last reported at 2018-Feb-23 07:07 UTC. Time now 2018-Feb-23 12:30 UTC.
Position N 29°44' W 095°03'.

Length 28 m; draft 3.4 m.

Type: . MMSI: 366921420.

Date/timePositionNaut miles runAvg speedWind from/ knotsBaromVisibWave heightAir tempDewpointWater temp
2018-Feb-23 07:07N 29°44' W 095°03'0 0.0
2018-Feb-23 06:58N 29°44' W 095°03'1 2.0
2018-Feb-23 06:30N 29°45' W 095°04'0 0.2
2018-Feb-23 04:42N 29°44' W 095°04'2 3.3
2018-Feb-23 04:05N 29°44' W 095°01'0 0.0
2018-Feb-23 04:00N 29°44' W 095°01'0 0.0
2018-Feb-23 03:30N 29°44' W 095°01'0 0.0
2018-Feb-23 00:54N 29°44' W 095°01'0 0.0
2018-Feb-21 11:02N 29°44' W 095°01'0 0.0
2018-Feb-21 11:00N 29°44' W 095°01'0 0.1
2018-Feb-21 09:44N 29°44' W 095°02'1 2.4
2018-Feb-21 09:29N 29°44' W 095°02'3 0.2
2018-Feb-20 14:06N 29°47' W 095°05'0 0.0
2018-Feb-20 13:46N 29°47' W 095°05'4 0.7
2018-Feb-20 08:15N 29°44' W 095°01'0 0.0
2018-Feb-19 18:28N 29°44' W 095°01'0 0.0
2018-Feb-19 15:00N 29°44' W 095°01'0 0.0
2018-Feb-19 09:30N 29°44' W 095°01'0 0.0
2018-Feb-19 08:59N 29°44' W 095°01'0 0.0
2018-Feb-19 08:30N 29°44' W 095°01'0 0.1
2018-Feb-19 08:00N 29°44' W 095°01'0 0.0
2018-Feb-19 07:30N 29°44' W 095°01'0 0.0
2018-Feb-19 07:00N 29°44' W 095°01'0 0.0
2018-Feb-19 06:29N 29°44' W 095°01'0 0.0
2018-Feb-19 06:00N 29°44' W 095°01'0 0.0
2018-Feb-19 05:30N 29°44' W 095°01'0 0.1
2018-Feb-18 21:26N 29°44' W 095°02'2 5.7
2018-Feb-18 21:00N 29°45' W 095°04'1 0.2
2018-Feb-18 17:07N 29°46' W 095°05'1 5.6
2018-Feb-18 16:59N 29°45' W 095°04'2 2.7
2018-Feb-18 16:17N 29°47' W 095°04'0 0.0
2018-Feb-18 15:55N 29°47' W 095°04'0 0.1
2018-Feb-18 14:59N 29°47' W 095°05'0 0.0
2018-Feb-18 14:21N 29°47' W 095°05'0 0.2
2018-Feb-18 11:29N 29°47' W 095°04'2 1.0
2018-Feb-18 09:25N 29°46' W 095°06'2 1.0
2018-Feb-18 07:15N 29°47' W 095°05'1 0.1
2018-Feb-18 02:43N 29°47' W 095°05'2 4.9
2018-Feb-18 02:14N 29°45' W 095°04'1 1.2
2018-Feb-18 01:29N 29°44' W 095°03'3 1.6
2018-Feb-17 23:32N 29°47' W 095°05'1 4.5
2018-Feb-17 23:19N 29°46' W 095°05'2 7.6
2018-Feb-17 23:00N 29°44' W 095°03'0 0.2
2018-Feb-17 22:29N 29°44' W 095°03'0 0.0
2018-Feb-17 22:00N 29°44' W 095°03'0 0.0
2018-Feb-17 21:30N 29°44' W 095°03'0 0.0
2018-Feb-17 20:58N 29°44' W 095°03'0 0.0
2018-Feb-17 20:30N 29°44' W 095°03'0 0.0
2018-Feb-17 20:00N 29°44' W 095°03'0 0.0
2018-Feb-17 19:30N 29°44' W 095°03'0 0.0
2018-Feb-17 19:00N 29°44' W 095°03'0 0.0
2018-Feb-17 18:29N 29°44' W 095°03'0 0.0
2018-Feb-17 17:57N 29°44' W 095°03'0 0.0
2018-Feb-17 17:27N 29°44' W 095°03'0 0.0
2018-Feb-17 16:55N 29°44' W 095°03'0 0.0
2018-Feb-17 16:29N 29°44' W 095°03'0 0.0
2018-Feb-17 15:58N 29°44' W 095°03'0 0.0
2018-Feb-17 15:29N 29°44' W 095°03'0 0.0
2018-Feb-17 14:59N 29°44' W 095°03'0 0.0
2018-Feb-17 14:30N 29°44' W 095°03'0 0.0
2018-Feb-17 13:56N 29°44' W 095°03'0 0.0
2018-Feb-17 13:24N 29°44' W 095°03'0 0.2
2018-Feb-17 12:54N 29°44' W 095°03'0 0.0
2018-Feb-17 12:30N 29°44' W 095°03'0 0.0
2018-Feb-17 12:00N 29°44' W 095°03'0 0.0
2018-Feb-17 11:30N 29°44' W 095°03'0 0.0
2018-Feb-17 10:57N 29°44' W 095°03'0 0.0
2018-Feb-17 10:30N 29°44' W 095°03'0 0.0
2018-Feb-17 09:58N 29°44' W 095°03'0 0.0
2018-Feb-17 09:27N 29°44' W 095°03'0 0.0
2018-Feb-17 08:57N 29°44' W 095°03'0 0.0
2018-Feb-17 08:30N 29°44' W 095°03'0 0.0
2018-Feb-17 08:00N 29°44' W 095°03'0 0.0
2018-Feb-17 07:30N 29°44' W 095°03'0 0.0
2018-Feb-17 06:56N 29°44' W 095°03'0 0.0
2018-Feb-17 06:29N 29°44' W 095°03'0 0.0
2018-Feb-17 06:00N 29°44' W 095°03'0 0.0
2018-Feb-17 05:30N 29°44' W 095°03'0 0.0
2018-Feb-17 04:54N 29°44' W 095°03'0 0.0
2018-Feb-17 04:30N 29°44' W 095°03'0 0.0
2018-Feb-17 04:00N 29°44' W 095°03'0 0.0
2018-Feb-17 03:29N 29°44' W 095°03'0 0.0
2018-Feb-17 03:00N 29°44' W 095°03'0 0.0
2018-Feb-17 02:29N 29°44' W 095°03'0 0.0
2018-Feb-17 01:59N 29°44' W 095°03'0 0.0
2018-Feb-17 01:29N 29°44' W 095°03'0 0.0
2018-Feb-17 00:58N 29°44' W 095°03'0 0.0
2018-Feb-17 00:28N 29°44' W 095°03'0 0.0
2018-Feb-16 23:59N 29°44' W 095°03'0 0.0
2018-Feb-16 23:30N 29°44' W 095°03'0 0.0
2018-Feb-16 23:00N 29°44' W 095°03'0 0.0
2018-Feb-16 21:46N 29°44' W 095°03'0 0.0
2018-Feb-16 16:33N 29°44' W 095°03'0 0.0
2018-Feb-16 16:30N 29°44' W 095°03'0 0.3
2018-Feb-16 16:00N 29°44' W 095°03'2 3.2
2018-Feb-16 15:29N 29°45' W 095°04'2 3.4
2018-Feb-16 15:00N 29°47' W 095°04'0 0.9
2018-Feb-16 14:30N 29°47' W 095°05'0 0.0
2018-Feb-16 13:59N 29°47' W 095°05'0 0.0
2018-Feb-16 11:08N 29°47' W 095°05'0 0.0
2018-Feb-16 09:17N 29°47' W 095°05'0 0.0
2018-Feb-16 08:54N 29°47' W 095°05'0 0.0
2018-Feb-16 08:18N 29°47' W 095°05'0 0.0
2018-Feb-16 07:49N 29°47' W 095°05'0 0.0
2018-Feb-16 07:24N 29°47' W 095°05'0 0.0
2018-Feb-16 06:58N 29°47' W 095°05'0 0.0
2018-Feb-16 06:30N 29°47' W 095°05'0 0.0
2018-Feb-16 05:58N 29°47' W 095°05'0 0.0
2018-Feb-16 05:25N 29°47' W 095°05'0 0.0
2018-Feb-16 04:55N 29°47' W 095°05'0 0.2
2018-Feb-16 04:30N 29°47' W 095°05'0 0.0
2018-Feb-16 03:58N 29°47' W 095°05'0 0.0
2018-Feb-16 03:30N 29°47' W 095°05'0 0.0
2018-Feb-16 02:59N 29°47' W 095°05'0 0.0
2018-Feb-16 02:28N 29°47' W 095°05'1 1.7
2018-Feb-16 01:38N 29°46' W 095°05'1 5.9
2018-Feb-16 01:28N 29°45' W 095°06'2 0.4
2018-Feb-15 19:36N 29°47' W 095°05'0 0.0
2018-Feb-15 08:08N 29°47' W 095°05'0 0.0
2018-Feb-15 08:00N 29°47' W 095°05'0 0.0
2018-Feb-15 07:15N 29°47' W 095°05'0 0.0
2018-Feb-15 06:51N 29°47' W 095°05'0 0.0
2018-Feb-15 06:27N 29°47' W 095°05'0 0.0
2018-Feb-15 05:43N 29°47' W 095°05'0 0.0
2018-Feb-15 05:22N 29°47' W 095°05'0 0.0
2018-Feb-15 04:50N 29°47' W 095°05'0 0.0
2018-Feb-15 04:15N 29°47' W 095°05'0 0.0
2018-Feb-14 22:21N 29°47' W 095°05'0 0.0
2018-Feb-14 21:58N 29°47' W 095°05'0 0.0
2018-Feb-14 20:08N 29°47' W 095°05'1 0.7
2018-Feb-14 18:34N 29°46' W 095°05'2 2.4
2018-Feb-14 17:52N 29°45' W 095°06'0 0.0
2018-Feb-14 17:12N 29°45' W 095°06'0 0.0
2018-Feb-14 16:43N 29°45' W 095°06'0 0.0
2018-Feb-14 14:48N 29°45' W 095°06'0 0.0
2018-Feb-14 14:26N 29°45' W 095°06'0 0.0
2018-Feb-14 13:58N 29°45' W 095°06'0 0.0
2018-Feb-14 13:28N 29°45' W 095°06'  

Dump ship's entire track history